Main page
METAR-TAF:

METAR-TAF

Airports :

Doncaster Sheffield Airport

Doncaster, England

latitude: 53-29N, longitude: 001-00W, elevation: 17 m

Current weather observation

The report was made 26 minutes ago, at 21:20 UTC
Wind 3 kt from the West/Southwest
Temperature 6°C
Humidity 87%
Pressure 1036 hPa
Visibility 10 km or more
Overcast at a height of 1800 ft

METAR: EGCN 222120Z 24003KT 9999 OVC018 06/04 Q1036

Time: 21:46 (21:46 UTC)

Forecast

The report was made 4 hours and 47 minutes ago, at 16:59 UTC
Forecast valid from 22 at 18 UTC to 23 at 18 UTC
Wind 5 kt from the West
Visibility 10 km or more
Few clouds at a height of 2000 ft
Probability 30% :
Temporary
from 23 at 00 UTC to 23 at 11 UTC
Visibility: 6000 m
Broken clouds at a height of 800 ft

TAF: EGCN 221659Z 2218/2318 27005KT 9999 FEW020 PROB30 TEMPO 2300/2311 6000 BKN008

Weather observations and forecasts of more than 4000 airports (METAR and TAF reports).

The available stations are represented by yellow and red dots on the map.

Hover mouse over dot to see the name of the station.

Then click to see weather observations and forecasts.

To change the map : click on the green buttons with a black cross to zoom in, on the green button with a dash to zoom out, or on the green arrows for adjacent maps.


METAR-TAF: